createdAt,value
2022-08-03T00:01:52.872Z,17.99
2022-08-03T00:04:21.052Z,17.97
2022-08-03T00:07:01.554Z,17.90
2022-08-03T00:09:35.582Z,17.85
2022-08-03T00:12:04.312Z,17.82
2022-08-03T00:14:32.506Z,17.80
2022-08-03T00:17:01.944Z,17.78
2022-08-03T00:19:30.065Z,17.75
2022-08-03T00:21:58.125Z,17.70
2022-08-03T00:24:26.193Z,17.64
2022-08-03T00:26:54.228Z,17.54
2022-08-03T00:29:22.276Z,17.49
2022-08-03T00:31:52.510Z,17.45
2022-08-03T00:34:36.465Z,17.41
2022-08-03T00:37:18.114Z,17.41
2022-08-03T00:39:48.079Z,17.38
2022-08-03T00:42:16.983Z,17.36
2022-08-03T00:44:45.940Z,17.31
2022-08-03T00:47:14.331Z,17.29
2022-08-03T00:49:43.987Z,17.24
2022-08-03T00:52:14.641Z,17.23
2022-08-03T00:54:42.728Z,17.20
2022-08-03T00:57:10.904Z,17.25
2022-08-03T00:59:39.732Z,17.25
2022-08-03T01:02:07.788Z,17.26
2022-08-03T01:04:35.793Z,17.26
2022-08-03T01:07:13.121Z,17.17
2022-08-03T01:09:53.838Z,16.99
2022-08-03T01:12:30.028Z,17.05
2022-08-03T01:15:04.055Z,17.05
2022-08-03T01:17:37.719Z,17.08
2022-08-03T01:20:09.113Z,17.12
2022-08-03T01:23:07.762Z,17.16
2022-08-03T01:25:47.778Z,17.15
2022-08-03T01:28:35.125Z,17.16
2022-08-03T01:31:08.239Z,17.15
2022-08-03T01:33:40.539Z,17.18
2022-08-03T01:36:11.528Z,17.19
2022-08-03T01:38:44.224Z,17.19
2022-08-03T01:41:16.588Z,17.13
2022-08-03T01:44:28.172Z,17.23
2022-08-03T01:46:39.486Z,17.26
2022-08-03T01:49:11.464Z,17.25
2022-08-03T01:52:03.654Z,17.26
2022-08-03T01:54:30.957Z,17.26
2022-08-03T01:57:00.822Z,17.27
2022-08-03T01:59:31.529Z,17.26
2022-08-03T02:02:28.360Z,17.23
2022-08-03T02:04:53.601Z,17.19
2022-08-03T02:07:22.104Z,17.12
2022-08-03T02:09:52.680Z,17.08
2022-08-03T02:12:23.738Z,17.09
2022-08-03T02:14:52.733Z,17.08
2022-08-03T02:17:38.560Z,17.08
2022-08-03T02:20:12.133Z,17.10
2022-08-03T02:22:41.814Z,17.12
2022-08-03T02:25:11.195Z,17.09
2022-08-03T02:27:44.132Z,17.13
2022-08-03T02:30:14.249Z,17.12
2022-08-03T02:32:49.739Z,17.10
2022-08-03T02:35:19.821Z,17.08
2022-08-03T02:37:53.233Z,17.01
2022-08-03T02:40:24.199Z,16.96
2022-08-03T02:42:56.177Z,16.90
2022-08-03T02:45:27.334Z,16.89
2022-08-03T02:48:01.079Z,16.89
2022-08-03T02:50:30.946Z,16.89
2022-08-03T02:53:01.150Z,16.84
2022-08-03T02:55:30.073Z,16.83
2022-08-03T02:58:01.310Z,16.82
2022-08-03T03:00:32.270Z,16.81
2022-08-03T03:03:06.132Z,16.79
2022-08-03T03:05:54.594Z,16.76
2022-08-03T03:08:26.186Z,16.76
2022-08-03T03:11:00.451Z,16.75
2022-08-03T03:13:30.043Z,16.75
2022-08-03T03:16:00.704Z,16.72
2022-08-03T03:18:32.565Z,16.66
2022-08-03T03:21:02.615Z,16.61
2022-08-03T03:23:32.401Z,16.57
2022-08-03T03:26:02.349Z,16.55
2022-08-03T03:28:31.595Z,16.53
2022-08-03T03:31:00.059Z,16.48
2022-08-03T03:33:28.696Z,16.49
2022-08-03T03:35:59.423Z,16.55
2022-08-03T03:38:27.848Z,16.52
2022-08-03T03:40:56.790Z,16.54
2022-08-03T03:43:25.519Z,16.58
2022-08-03T03:45:54.687Z,16.61
2022-08-03T03:48:25.242Z,16.61
2022-08-03T03:50:53.809Z,16.56
2022-08-03T03:53:23.189Z,16.58
2022-08-03T03:55:58.914Z,16.55
2022-08-03T03:58:32.345Z,16.51
2022-08-03T04:01:00.909Z,16.48
2022-08-03T04:03:29.219Z,16.48
2022-08-03T04:06:15.290Z,16.50
2022-08-03T04:09:02.229Z,16.49
2022-08-03T04:11:35.699Z,16.48
2022-08-03T04:14:09.334Z,16.46
2022-08-03T04:16:43.966Z,16.43
2022-08-03T04:19:22.766Z,16.46
2022-08-03T04:21:57.043Z,16.44
2022-08-03T04:24:30.285Z,16.44
2022-08-03T04:27:00.062Z,16.48
2022-08-03T04:29:30.492Z,16.48
2022-08-03T04:32:00.931Z,16.53
2022-08-03T04:34:31.931Z,16.54
2022-08-03T04:37:02.937Z,16.58
2022-08-03T04:39:33.894Z,16.63
2022-08-03T04:42:08.141Z,16.66
2022-08-03T04:44:47.736Z,16.74
2022-08-03T04:47:16.182Z,16.80
2022-08-03T04:49:44.803Z,16.89
2022-08-03T04:52:13.391Z,17.00
2022-08-03T04:54:50.099Z,17.14
2022-08-03T04:57:22.937Z,17.27
2022-08-03T04:59:58.153Z,17.39
2022-08-03T05:02:30.293Z,17.50
2022-08-03T05:04:58.470Z,17.62
2022-08-03T05:07:26.553Z,17.71
2022-08-03T05:10:09.139Z,17.79
2022-08-03T05:12:45.192Z,17.91
2022-08-03T05:15:13.600Z,18.00
2022-08-03T05:17:42.018Z,18.05
2022-08-03T05:20:11.511Z,18.15
2022-08-03T05:22:39.717Z,18.20
2022-08-03T05:25:09.488Z,18.26
2022-08-03T05:27:45.462Z,18.33
2022-08-03T05:30:31.532Z,18.37
2022-08-03T05:33:02.614Z,18.49
2022-08-03T05:36:03.020Z,18.58
2022-08-03T05:38:23.704Z,18.64
2022-08-03T05:41:21.559Z,18.73
2022-08-03T05:43:46.250Z,18.80
2022-08-03T05:46:14.426Z,18.89
2022-08-03T05:48:43.568Z,18.95
2022-08-03T05:51:12.358Z,19.02
2022-08-03T05:53:40.725Z,19.07
2022-08-03T05:56:14.374Z,19.15
2022-08-03T05:58:44.499Z,19.18
2022-08-03T06:01:12.704Z,19.27
2022-08-03T06:03:40.901Z,19.38
2022-08-03T06:06:09.284Z,19.46
2022-08-03T06:08:37.357Z,19.62
2022-08-03T06:11:05.913Z,19.69
2022-08-03T06:13:35.555Z,19.78
2022-08-03T06:16:03.793Z,20.00
2022-08-03T06:18:31.958Z,20.02
2022-08-03T06:21:01.612Z,20.09
2022-08-03T06:23:54.276Z,20.13
2022-08-03T06:26:29.341Z,20.21
2022-08-03T06:28:58.725Z,20.24
2022-08-03T06:31:32.809Z,20.37
2022-08-03T06:34:33.567Z,20.57
2022-08-03T06:36:58.590Z,20.67
2022-08-03T06:39:29.634Z,20.75
2022-08-03T06:41:57.993Z,20.84
2022-08-03T06:44:27.535Z,20.93
2022-08-03T06:46:55.820Z,20.97
2022-08-03T06:49:24.068Z,21.12
2022-08-03T06:52:05.890Z,21.21
2022-08-03T06:54:38.060Z,21.38
2022-08-03T06:57:08.099Z,21.40
2022-08-03T07:00:06.611Z,21.51
2022-08-03T07:02:28.231Z,21.57
2022-08-03T07:04:57.300Z,21.70
2022-08-03T07:07:25.796Z,21.74
2022-08-03T07:09:57.819Z,21.73
2022-08-03T07:12:27.585Z,21.74
2022-08-03T07:15:01.630Z,21.98
2022-08-03T07:17:32.451Z,22.28
2022-08-03T07:20:01.443Z,22.40
2022-08-03T07:22:29.568Z,22.53
2022-08-03T07:24:57.945Z,22.61
2022-08-03T07:27:28.516Z,22.79
2022-08-03T07:29:58.702Z,22.81
2022-08-03T07:32:28.370Z,22.89
2022-08-03T07:35:00.495Z,23.00
2022-08-03T07:37:30.567Z,23.01
2022-08-03T07:39:58.744Z,23.05
2022-08-03T07:42:26.982Z,23.14
2022-08-03T07:44:55.113Z,23.10
2022-08-03T07:47:35.711Z,23.18
2022-08-03T07:50:06.564Z,23.26
2022-08-03T07:52:49.367Z,23.33
2022-08-03T07:55:18.466Z,23.32
2022-08-03T07:57:46.598Z,23.41
2022-08-03T08:00:17.310Z,23.51
2022-08-03T08:02:46.987Z,23.49
2022-08-03T08:05:15.025Z,23.71
2022-08-03T08:07:43.110Z,23.82
2022-08-03T08:10:11.421Z,23.90
2022-08-03T08:12:40.210Z,23.95
2022-08-03T08:15:10.114Z,23.97
2022-08-03T08:17:48.243Z,24.01
2022-08-03T08:20:27.064Z,24.04
2022-08-03T08:22:58.288Z,24.13
2022-08-03T08:25:30.189Z,24.33
2022-08-03T08:28:29.460Z,24.34
2022-08-03T08:30:46.799Z,24.45
2022-08-03T08:33:23.242Z,24.44
2022-08-03T08:35:54.102Z,24.57
2022-08-03T08:38:22.662Z,24.55
2022-08-03T08:40:51.273Z,24.59
2022-08-03T08:43:19.510Z,24.58
2022-08-03T08:45:50.098Z,24.72
2022-08-03T08:48:25.494Z,24.72
2022-08-03T08:50:55.225Z,24.86
2022-08-03T08:53:27.233Z,24.93
2022-08-03T08:56:00.883Z,24.85
2022-08-03T08:58:31.883Z,24.86
2022-08-03T09:01:00.145Z,24.86
2022-08-03T09:03:30.958Z,24.91
2022-08-03T09:06:02.128Z,24.95
2022-08-03T09:08:31.050Z,24.93
2022-08-03T09:10:59.123Z,24.96
2022-08-03T09:13:29.004Z,25.01
2022-08-03T09:16:17.212Z,25.01
2022-08-03T09:18:48.395Z,25.14
2022-08-03T09:21:31.249Z,25.21
2022-08-03T09:24:03.370Z,25.27
2022-08-03T09:26:34.446Z,25.44
2022-08-03T09:29:08.170Z,25.50
2022-08-03T09:31:43.121Z,25.65
2022-08-03T09:34:15.218Z,25.77
2022-08-03T09:36:44.915Z,25.93
2022-08-03T09:39:14.956Z,26.00
2022-08-03T09:41:44.507Z,26.13
2022-08-03T09:44:24.340Z,26.21
2022-08-03T09:46:57.320Z,26.31
2022-08-03T09:49:26.857Z,26.52
2022-08-03T09:52:32.046Z,26.45
2022-08-03T09:54:44.666Z,26.56
2022-08-03T09:57:24.176Z,26.67
2022-08-03T10:00:04.435Z,26.84
2022-08-03T10:02:34.370Z,26.71
2022-08-03T10:05:04.103Z,26.57
2022-08-03T10:07:46.085Z,26.69
2022-08-03T10:10:30.209Z,26.66
2022-08-03T10:12:59.869Z,26.60
2022-08-03T10:16:21.969Z,26.68
2022-08-03T10:18:16.697Z,26.78
2022-08-03T10:20:49.543Z,26.59
2022-08-03T10:23:19.603Z,26.63
2022-08-03T10:25:50.829Z,26.68
2022-08-03T10:28:21.974Z,26.84
2022-08-03T10:30:54.025Z,26.96
2022-08-03T10:33:49.988Z,26.95
2022-08-03T10:36:14.709Z,27.03
2022-08-03T10:38:46.673Z,27.08
2022-08-03T10:41:15.138Z,27.09
2022-08-03T10:43:51.704Z,26.95
2022-08-03T10:46:22.341Z,27.08
2022-08-03T10:48:52.524Z,27.08
2022-08-03T10:51:22.826Z,27.10
2022-08-03T10:53:54.664Z,27.15
2022-08-03T10:57:01.850Z,27.17
2022-08-03T11:00:03.694Z,27.26
2022-08-03T11:03:06.246Z,27.33
2022-08-03T11:05:36.590Z,27.44
2022-08-03T11:08:36.206Z,27.32
2022-08-03T11:11:29.861Z,27.50
2022-08-03T11:13:59.898Z,27.63
2022-08-03T11:16:28.966Z,27.66
2022-08-03T11:18:58.970Z,27.65
2022-08-03T11:21:55.518Z,27.71
2022-08-03T11:25:05.065Z,27.67
2022-08-03T11:27:34.377Z,27.75
2022-08-03T11:30:06.999Z,27.71
2022-08-03T11:33:00.124Z,27.52
2022-08-03T11:35:30.404Z,27.43
2022-08-03T11:38:08.353Z,27.42
2022-08-03T11:40:40.665Z,27.48
2022-08-03T11:43:10.709Z,27.42
2022-08-03T11:45:39.728Z,27.53
2022-08-03T11:48:18.443Z,27.76
2022-08-03T11:50:46.516Z,27.90
2022-08-03T11:53:18.306Z,28.12
2022-08-03T11:55:49.958Z,28.31
2022-08-03T11:59:01.959Z,28.45
2022-08-03T12:01:10.648Z,28.63
2022-08-03T12:03:38.911Z,28.65
2022-08-03T12:06:11.436Z,28.56
2022-08-03T12:08:40.493Z,28.68
2022-08-03T12:11:11.449Z,28.75
2022-08-03T12:14:37.373Z,28.82
2022-08-03T12:16:29.761Z,28.76
2022-08-03T12:19:00.294Z,28.80
2022-08-03T12:21:29.022Z,29.04
2022-08-03T12:24:01.574Z,29.07
2022-08-03T12:26:43.756Z,29.28
2022-08-03T12:29:18.214Z,29.60
2022-08-03T12:31:46.411Z,30.02
2022-08-03T12:34:14.718Z,30.24
2022-08-03T12:36:52.403Z,30.76
2022-08-03T12:39:25.216Z,31.36
2022-08-03T12:41:56.562Z,31.78
2022-08-03T12:44:32.257Z,32.57
2022-08-03T12:47:01.259Z,33.32
2022-08-03T12:49:30.462Z,33.54
2022-08-03T12:52:05.498Z,34.02
2022-08-03T12:54:36.059Z,35.01
2022-08-03T12:57:06.900Z,36.33
2022-08-03T12:59:40.410Z,36.71
2022-08-03T13:02:17.759Z,35.85
2022-08-03T13:04:47.409Z,35.20
2022-08-03T13:07:18.107Z,35.89
2022-08-03T13:09:49.528Z,36.81
2022-08-03T13:12:21.114Z,36.64
2022-08-03T13:14:51.856Z,38.34
2022-08-03T13:17:20.527Z,39.06
2022-08-03T13:19:49.477Z,38.87
2022-08-03T13:22:19.533Z,39.09
2022-08-03T13:24:51.640Z,37.58
2022-08-03T13:28:02.515Z,37.68
2022-08-03T13:30:11.026Z,39.04
2022-08-03T13:32:39.229Z,39.69
2022-08-03T13:35:08.625Z,37.83
2022-08-03T13:37:36.746Z,37.35
2022-08-03T13:40:06.437Z,37.85
2022-08-03T13:42:36.802Z,37.57
2022-08-03T13:45:06.420Z,38.20
2022-08-03T13:47:34.471Z,37.91
2022-08-03T13:50:03.347Z,38.60
2022-08-03T13:52:33.936Z,39.30
2022-08-03T13:55:02.515Z,40.17
2022-08-03T13:58:06.537Z,38.82
2022-08-03T14:00:28.121Z,39.06
2022-08-03T14:03:05.175Z,38.58
2022-08-03T14:05:35.657Z,38.00
2022-08-03T14:08:05.729Z,36.14
2022-08-03T14:10:35.621Z,35.57
2022-08-03T14:13:04.048Z,35.36
2022-08-03T14:15:37.462Z,35.62
2022-08-03T14:18:06.240Z,36.67
2022-08-03T14:20:38.008Z,38.11
2022-08-03T14:23:15.894Z,38.09
2022-08-03T14:25:52.370Z,39.38
2022-08-03T14:28:23.400Z,40.36
2022-08-03T14:30:54.150Z,40.49
2022-08-03T14:33:22.786Z,40.67
2022-08-03T14:35:51.804Z,39.73
2022-08-03T14:38:20.265Z,39.64
2022-08-03T14:40:49.176Z,40.22
2022-08-03T14:43:20.189Z,40.19
2022-08-03T14:45:48.369Z,40.93
2022-08-03T14:50:28.728Z,41.67
2022-08-03T14:51:05.895Z,43.17
2022-08-03T14:53:35.405Z,41.83
2022-08-03T14:56:07.998Z,40.46
2022-08-03T14:58:38.736Z,41.45
2022-08-03T15:02:04.848Z,42.19
2022-08-03T15:03:56.843Z,41.11
2022-08-03T15:06:25.546Z,40.86
2022-08-03T15:09:21.501Z,40.36
2022-08-03T15:11:42.402Z,39.18
2022-08-03T15:14:10.768Z,37.78
2022-08-03T15:16:41.878Z,37.67
2022-08-03T15:20:02.354Z,38.90
2022-08-03T15:22:00.978Z,37.97
2022-08-03T15:24:29.450Z,38.23
2022-08-03T15:26:57.473Z,37.35
2022-08-03T15:30:07.864Z,38.25
2022-08-03T15:32:13.838Z,37.19
2022-08-03T15:34:50.565Z,36.53
2022-08-03T15:37:20.681Z,35.53
2022-08-03T15:39:59.578Z,34.91
2022-08-03T15:42:29.699Z,33.80
2022-08-03T15:44:58.066Z,33.54
2022-08-03T15:47:26.848Z,33.48
2022-08-03T15:49:56.404Z,34.25
2022-08-03T15:52:24.614Z,35.50
2022-08-03T15:54:52.783Z,35.69
2022-08-03T15:57:21.664Z,36.14
2022-08-03T15:59:50.018Z,36.33
2022-08-03T16:02:18.084Z,37.82
2022-08-03T16:04:46.105Z,37.70
2022-08-03T16:07:16.273Z,37.03
2022-08-03T16:09:44.532Z,36.43
2022-08-03T16:12:16.186Z,36.68
2022-08-03T16:14:52.871Z,36.20
2022-08-03T16:17:22.256Z,36.04
2022-08-03T16:19:50.789Z,35.65
2022-08-03T16:22:23.778Z,35.97
2022-08-03T16:24:52.595Z,35.69
2022-08-03T16:27:37.593Z,35.17
2022-08-03T16:30:11.091Z,33.98
2022-08-03T16:32:39.854Z,33.44
2022-08-03T16:35:09.174Z,33.48
2022-08-03T16:37:56.390Z,33.56
2022-08-03T16:40:26.167Z,33.95
2022-08-03T16:42:54.306Z,33.66
2022-08-03T16:45:22.438Z,33.97
2022-08-03T16:48:01.493Z,34.44
2022-08-03T16:50:35.264Z,35.13
2022-08-03T16:53:09.148Z,35.39
2022-08-03T16:55:48.922Z,35.35
2022-08-03T16:58:34.559Z,35.62
2022-08-03T17:01:22.603Z,35.53
2022-08-03T17:04:02.140Z,36.09
2022-08-03T17:06:34.583Z,35.73
2022-08-03T17:09:08.671Z,36.45
2022-08-03T17:11:43.901Z,36.48
2022-08-03T17:14:15.941Z,36.17
2022-08-03T17:16:52.559Z,36.58
2022-08-03T17:19:23.969Z,35.59
2022-08-03T17:22:01.193Z,35.31
2022-08-03T17:24:34.665Z,35.05
2022-08-03T17:27:08.864Z,34.57
2022-08-03T17:29:45.335Z,34.09
2022-08-03T17:32:18.377Z,33.62
2022-08-03T17:34:49.991Z,33.24
2022-08-03T17:37:22.180Z,32.80
2022-08-03T17:40:17.588Z,32.54
2022-08-03T17:42:50.802Z,32.12
2022-08-03T17:45:19.473Z,32.04
2022-08-03T17:47:56.977Z,31.71
2022-08-03T17:50:35.601Z,31.63
2022-08-03T17:53:15.584Z,31.41
2022-08-03T17:56:40.748Z,31.24
2022-08-03T17:59:02.208Z,31.00
2022-08-03T18:02:23.651Z,30.81
2022-08-03T18:05:16.808Z,30.64
2022-08-03T18:07:49.551Z,30.41
2022-08-03T18:10:28.289Z,30.30
2022-08-03T18:13:03.887Z,30.11
2022-08-03T18:15:43.565Z,29.96
2022-08-03T18:18:15.506Z,29.86
2022-08-03T18:20:45.722Z,29.84
2022-08-03T18:23:24.818Z,29.70
2022-08-03T18:26:06.731Z,29.51
2022-08-03T18:28:38.350Z,29.41
2022-08-03T18:31:07.124Z,29.35
2022-08-03T18:34:17.379Z,29.28
2022-08-03T18:39:15.202Z,29.04
2022-08-03T18:44:46.592Z,28.97
2022-08-03T18:47:50.986Z,28.81
2022-08-03T18:50:29.393Z,28.70
2022-08-03T18:53:15.743Z,28.62
2022-08-03T18:56:02.161Z,28.47
2022-08-03T18:58:36.358Z,28.41
2022-08-03T19:02:01.068Z,28.30
2022-08-03T19:04:11.084Z,28.18
2022-08-03T19:06:43.208Z,28.06
2022-08-03T19:09:20.026Z,27.86
2022-08-03T19:12:12.694Z,27.88
2022-08-03T19:14:45.701Z,27.71
2022-08-03T19:17:21.396Z,27.65
2022-08-03T19:19:52.367Z,27.60
2022-08-03T19:22:21.547Z,27.52
2022-08-03T19:24:50.188Z,27.43
2022-08-03T19:27:21.421Z,27.32
2022-08-03T19:30:00.654Z,27.21
2022-08-03T19:32:34.492Z,27.04
2022-08-03T19:35:03.957Z,27.05
2022-08-03T19:37:39.911Z,26.95
2022-08-03T19:40:12.419Z,26.88
2022-08-03T19:42:44.798Z,26.83
2022-08-03T19:45:17.743Z,26.76
2022-08-03T19:47:52.470Z,26.68
2022-08-03T19:50:21.721Z,26.58
2022-08-03T19:52:50.902Z,26.51
2022-08-03T19:55:19.486Z,26.42
2022-08-03T19:57:49.059Z,26.39
2022-08-03T20:00:26.444Z,26.27
2022-08-03T20:02:59.434Z,26.24
2022-08-03T20:05:27.817Z,26.18
2022-08-03T20:07:59.856Z,26.13
2022-08-03T20:10:28.003Z,26.04
2022-08-03T20:12:56.114Z,25.93
2022-08-03T20:15:31.700Z,25.80
2022-08-03T20:18:01.390Z,25.79
2022-08-03T20:20:33.320Z,25.63
2022-08-03T20:23:06.828Z,25.57
2022-08-03T20:25:48.472Z,25.53
2022-08-03T20:28:27.723Z,25.50
2022-08-03T20:30:58.143Z,25.38
2022-08-03T20:33:46.702Z,25.26
2022-08-03T20:36:18.711Z,25.20
2022-08-03T20:38:48.048Z,25.02
2022-08-03T20:41:17.130Z,25.00
2022-08-03T20:43:45.237Z,24.80
2022-08-03T20:46:32.005Z,24.56
2022-08-03T20:49:05.858Z,24.86
2022-08-03T20:51:52.413Z,24.68
2022-08-03T20:54:31.030Z,24.61
2022-08-03T20:57:03.953Z,24.41
2022-08-03T20:59:50.694Z,24.37
2022-08-03T21:02:29.687Z,24.28
2022-08-03T21:05:03.279Z,24.11
2022-08-03T21:08:03.949Z,24.09
2022-08-03T21:10:29.216Z,24.02
2022-08-03T21:12:58.650Z,29.16
2022-08-03T21:12:58.870Z,29.03
2022-08-03T21:13:16.044Z,23.83
2022-08-03T21:16:02.560Z,23.71
2022-08-03T21:18:39.858Z,23.82
2022-08-03T21:21:12.008Z,23.80
2022-08-03T21:23:48.630Z,23.55
2022-08-03T21:26:18.912Z,23.55
2022-08-03T21:28:47.866Z,23.46
2022-08-03T21:31:24.282Z,23.51
2022-08-03T21:33:56.456Z,23.31
2022-08-03T21:36:27.879Z,23.16
2022-08-03T21:38:57.492Z,23.24
2022-08-03T21:41:27.261Z,23.21
2022-08-03T21:43:55.316Z,23.20
2022-08-03T21:46:24.774Z,23.22
2022-08-03T21:48:56.360Z,23.16
2022-08-03T21:51:49.830Z,23.00
2022-08-03T21:54:20.145Z,22.96
2022-08-03T21:56:51.303Z,22.99
2022-08-03T21:59:20.602Z,22.81
2022-08-03T22:01:55.447Z,22.76
2022-08-03T22:04:50.337Z,22.79
2022-08-03T22:07:17.978Z,22.83
2022-08-03T22:09:50.104Z,22.82
2022-08-03T22:12:22.806Z,22.76
2022-08-03T22:15:00.043Z,22.80
2022-08-03T22:17:54.709Z,22.56
2022-08-03T22:20:21.107Z,22.41
2022-08-03T22:22:56.554Z,22.29
2022-08-03T22:25:32.117Z,22.28
2022-08-03T22:28:02.268Z,22.31
2022-08-03T22:30:31.601Z,22.20
2022-08-03T22:33:02.364Z,22.11
2022-08-03T22:35:32.935Z,22.02
2022-08-03T22:38:18.307Z,21.95
2022-08-03T22:40:48.793Z,21.97
2022-08-03T22:43:17.381Z,21.92
2022-08-03T22:46:10.477Z,21.89
2022-08-03T22:48:40.998Z,21.86
2022-08-03T22:51:10.289Z,21.99
2022-08-03T22:53:40.060Z,21.76
2022-08-03T22:56:08.266Z,21.65
2022-08-03T22:58:36.307Z,21.79
2022-08-03T23:01:07.103Z,21.81
2022-08-03T23:04:00.749Z,21.68
2022-08-03T23:06:30.360Z,21.61
2022-08-03T23:09:00.667Z,21.66
2022-08-03T23:11:29.623Z,21.52
2022-08-03T23:14:00.366Z,21.48
2022-08-03T23:16:33.009Z,21.45
2022-08-03T23:19:16.725Z,21.41
2022-08-03T23:22:00.385Z,21.39
2022-08-03T23:24:35.766Z,21.25
2022-08-03T23:27:04.700Z,21.36
2022-08-03T23:29:35.302Z,21.36
2022-08-03T23:32:04.317Z,21.29
2022-08-03T23:34:59.602Z,21.24
2022-08-03T23:37:27.969Z,21.28
2022-08-03T23:39:58.307Z,21.18
2022-08-03T23:42:27.317Z,21.25
2022-08-03T23:44:59.563Z,21.30
2022-08-03T23:47:46.264Z,21.25
2022-08-03T23:50:16.213Z,21.08
2022-08-03T23:52:53.916Z,21.00
2022-08-03T23:55:34.774Z,20.93
2022-08-03T23:58:10.736Z,20.87
